sensor_id;sensor_type;location;lat;lon;timestamp;pressure;altitude;pressure_sealevel;temperature;humidity
21640;BME280;10981;45.462;10.974;2024-02-23T00:00:48;99340.06;;;8.63;100.00
21640;BME280;10981;45.462;10.974;2024-02-23T00:03:17;99331.53;;;8.61;100.00
21640;BME280;10981;45.462;10.974;2024-02-23T00:05:45;99324.56;;;8.62;100.00
21640;BME280;10981;45.462;10.974;2024-02-23T00:08:13;99319.34;;;8.62;100.00
21640;BME280;10981;45.462;10.974;2024-02-23T00:10:44;99308.34;;;8.68;100.00
21640;BME280;10981;45.462;10.974;2024-02-23T00:13:13;99308.03;;;8.71;100.00
21640;BME280;10981;45.462;10.974;2024-02-23T00:15:41;99296.81;;;8.71;100.00
21640;BME280;10981;45.462;10.974;2024-02-23T00:18:09;99295.16;;;8.70;100.00
21640;BME280;10981;45.462;10.974;2024-02-23T00:20:37;99295.97;;;8.70;100.00
21640;BME280;10981;45.462;10.974;2024-02-23T00:23:05;99289.78;;;8.71;100.00
21640;BME280;10981;45.462;10.974;2024-02-23T00:25:34;99291.59;;;8.71;100.00
21640;BME280;10981;45.462;10.974;2024-02-23T00:28:02;99285.38;;;8.72;100.00
21640;BME280;10981;45.462;10.974;2024-02-23T00:30:30;99287.03;;;8.73;100.00
21640;BME280;10981;45.462;10.974;2024-02-23T00:32:58;99277.88;;;8.69;100.00
21640;BME280;10981;45.462;10.974;2024-02-23T00:35:27;99278.41;;;8.72;100.00
21640;BME280;10981;45.462;10.974;2024-02-23T00:37:55;99270.56;;;8.72;100.00
21640;BME280;10981;45.462;10.974;2024-02-23T00:40:23;99279.88;;;8.75;100.00
21640;BME280;10981;45.462;10.974;2024-02-23T00:42:54;99266.84;;;8.75;100.00
21640;BME280;10981;45.462;10.974;2024-02-23T00:45:22;99265.22;;;8.74;100.00
21640;BME280;10981;45.462;10.974;2024-02-23T00:47:53;99256.41;;;8.75;100.00
21640;BME280;10981;45.462;10.974;2024-02-23T00:50:21;99251.34;;;8.73;100.00
21640;BME280;10981;45.462;10.974;2024-02-23T00:52:51;99249.25;;;8.77;100.00
21640;BME280;10981;45.462;10.974;2024-02-23T00:55:20;99245.03;;;8.76;100.00
21640;BME280;10981;45.462;10.974;2024-02-23T00:57:48;99229.50;;;8.74;100.00
21640;BME280;10981;45.462;10.974;2024-02-23T01:00:17;99232.94;;;8.75;100.00
21640;BME280;10981;45.462;10.974;2024-02-23T01:02:45;99234.88;;;8.73;100.00
21640;BME280;10981;45.462;10.974;2024-02-23T01:05:13;99234.88;;;8.73;100.00
21640;BME280;10981;45.462;10.974;2024-02-23T01:07:42;99218.69;;;8.69;100.00
21640;BME280;10981;45.462;10.974;2024-02-23T01:10:10;99210.06;;;8.69;100.00
21640;BME280;10981;45.462;10.974;2024-02-23T01:12:38;99211.56;;;8.71;100.00
21640;BME280;10981;45.462;10.974;2024-02-23T01:15:06;99211.72;;;8.70;100.00
21640;BME280;10981;45.462;10.974;2024-02-23T01:17:35;99205.66;;;8.69;100.00
21640;BME280;10981;45.462;10.974;2024-02-23T01:20:03;99196.22;;;8.68;100.00
21640;BME280;10981;45.462;10.974;2024-02-23T01:22:32;99187.56;;;8.67;100.00
21640;BME280;10981;45.462;10.974;2024-02-23T01:25:05;99177.66;;;8.71;100.00
21640;BME280;10981;45.462;10.974;2024-02-23T01:27:33;99174.25;;;8.71;100.00
21640;BME280;10981;45.462;10.974;2024-02-23T01:30:02;99167.91;;;8.73;100.00
21640;BME280;10981;45.462;10.974;2024-02-23T01:32:31;99158.00;;;8.77;100.00
21640;BME280;10981;45.462;10.974;2024-02-23T01:34:59;99159.09;;;8.74;100.00
21640;BME280;10981;45.462;10.974;2024-02-23T01:37:30;99149.50;;;8.75;100.00
21640;BME280;10981;45.462;10.974;2024-02-23T01:39:59;99145.47;;;8.80;100.00
21640;BME280;10981;45.462;10.974;2024-02-23T01:42:27;99132.44;;;8.80;100.00
21640;BME280;10981;45.462;10.974;2024-02-23T01:44:55;99128.72;;;8.83;100.00
21640;BME280;10981;45.462;10.974;2024-02-23T01:47:24;99130.19;;;8.86;100.00
21640;BME280;10981;45.462;10.974;2024-02-23T01:49:53;99127.47;;;8.87;100.00
21640;BME280;10981;45.462;10.974;2024-02-23T01:52:23;99110.00;;;8.88;100.00
21640;BME280;10981;45.462;10.974;2024-02-23T01:54:52;99115.53;;;8.85;100.00
21640;BME280;10981;45.462;10.974;2024-02-23T01:57:22;99106.59;;;8.87;100.00
21640;BME280;10981;45.462;10.974;2024-02-23T02:00:12;99104.28;;;8.84;100.00
21640;BME280;10981;45.462;10.974;2024-02-23T02:02:47;99102.63;;;8.83;100.00
21640;BME280;10981;45.462;10.974;2024-02-23T02:05:17;99105.09;;;8.85;100.00
21640;BME280;10981;45.462;10.974;2024-02-23T02:07:46;99109.31;;;8.86;100.00
21640;BME280;10981;45.462;10.974;2024-02-23T02:10:18;99103.16;;;8.87;100.00
21640;BME280;10981;45.462;10.974;2024-02-23T02:12:46;99089.47;;;8.85;100.00
21640;BME280;10981;45.462;10.974;2024-02-23T02:15:14;99106.06;;;8.83;100.00
21640;BME280;10981;45.462;10.974;2024-02-23T02:17:43;99089.75;;;8.81;100.00
21640;BME280;10981;45.462;10.974;2024-02-23T02:20:12;99090.88;;;8.79;100.00
21640;BME280;10981;45.462;10.974;2024-02-23T02:22:41;99104.72;;;8.79;100.00
21640;BME280;10981;45.462;10.974;2024-02-23T02:25:13;99098.53;;;8.80;100.00
21640;BME280;10981;45.462;10.974;2024-02-23T02:27:50;99092.34;;;8.81;100.00
21640;BME280;10981;45.462;10.974;2024-02-23T02:30:19;99084.97;;;8.77;100.00
21640;BME280;10981;45.462;10.974;2024-02-23T02:32:47;99075.66;;;8.74;100.00
21640;BME280;10981;45.462;10.974;2024-02-23T02:35:16;99078.28;;;8.74;100.00
21640;BME280;10981;45.462;10.974;2024-02-23T02:37:56;99072.09;;;8.75;100.00
21640;BME280;10981;45.462;10.974;2024-02-23T02:40:24;99066.06;;;8.75;100.00
21640;BME280;10981;45.462;10.974;2024-02-23T02:42:58;99060.25;;;8.81;100.00
21640;BME280;10981;45.462;10.974;2024-02-23T02:45:26;99053.09;;;8.83;100.00
21640;BME280;10981;45.462;10.974;2024-02-23T02:47:55;99035.19;;;8.88;100.00
21640;BME280;10981;45.462;10.974;2024-02-23T02:50:24;99032.44;;;8.90;100.00
21640;BME280;10981;45.462;10.974;2024-02-23T02:52:54;99016.31;;;8.94;100.00
21640;BME280;10981;45.462;10.974;2024-02-23T02:55:27;99015.34;;;8.95;100.00
21640;BME280;10981;45.462;10.974;2024-02-23T02:57:55;99003.94;;;8.96;100.00
21640;BME280;10981;45.462;10.974;2024-02-23T03:00:23;99010.81;;;8.97;100.00
21640;BME280;10981;45.462;10.974;2024-02-23T03:02:51;98996.78;;;8.98;100.00
21640;BME280;10981;45.462;10.974;2024-02-23T03:05:23;98997.97;;;9.04;100.00
21640;BME280;10981;45.462;10.974;2024-02-23T03:07:51;98988.03;;;9.08;100.00
21640;BME280;10981;45.462;10.974;2024-02-23T03:10:22;98981.19;;;9.07;100.00
21640;BME280;10981;45.462;10.974;2024-02-23T03:12:50;98988.03;;;9.08;100.00
21640;BME280;10981;45.462;10.974;2024-02-23T03:15:19;98984.47;;;9.09;100.00
21640;BME280;10981;45.462;10.974;2024-02-23T03:17:47;98968.47;;;9.12;100.00
21640;BME280;10981;45.462;10.974;2024-02-23T03:20:16;98970.28;;;9.11;100.00
21640;BME280;10981;45.462;10.974;2024-02-23T03:22:44;98966.03;;;9.10;100.00
21640;BME280;10981;45.462;10.974;2024-02-23T03:25:12;98969.44;;;9.11;100.00
21640;BME280;10981;45.462;10.974;2024-02-23T03:27:41;98974.22;;;9.15;100.00
21640;BME280;10981;45.462;10.974;2024-02-23T03:30:10;98967.69;;;9.20;100.00
21640;BME280;10981;45.462;10.974;2024-02-23T03:32:38;98969.63;;;9.18;100.00
21640;BME280;10981;45.462;10.974;2024-02-23T03:35:07;98962.31;;;9.21;100.00
21640;BME280;10981;45.462;10.974;2024-02-23T03:37:37;98957.94;;;9.22;100.00
21640;BME280;10981;45.462;10.974;2024-02-23T03:40:06;98950.91;;;9.22;100.00
21640;BME280;10981;45.462;10.974;2024-02-23T03:42:35;98936.72;;;9.25;100.00
21640;BME280;10981;45.462;10.974;2024-02-23T03:45:05;98933.16;;;9.26;100.00
21640;BME280;10981;45.462;10.974;2024-02-23T03:47:33;98933.50;;;9.31;100.00
21640;BME280;10981;45.462;10.974;2024-02-23T03:50:05;98933.03;;;9.36;100.00
21640;BME280;10981;45.462;10.974;2024-02-23T03:52:33;98929.91;;;9.40;100.00
21640;BME280;10981;45.462;10.974;2024-02-23T03:55:02;98931.72;;;9.40;100.00
21640;BME280;10981;45.462;10.974;2024-02-23T03:57:31;98934.16;;;9.41;100.00
21640;BME280;10981;45.462;10.974;2024-02-23T04:00:03;98928.66;;;9.44;100.00
21640;BME280;10981;45.462;10.974;2024-02-23T04:02:39;98932.22;;;9.43;100.00
21640;BME280;10981;45.462;10.974;2024-02-23T04:05:07;98935.81;;;9.42;100.00
21640;BME280;10981;45.462;10.974;2024-02-23T04:07:36;98924.19;;;9.37;100.00
21640;BME280;10981;45.462;10.974;2024-02-23T04:10:04;98927.94;;;9.34;100.00
21640;BME280;10981;45.462;10.974;2024-02-23T04:12:32;98910.66;;;9.33;100.00
21640;BME280;10981;45.462;10.974;2024-02-23T04:15:01;98913.91;;;9.35;100.00
21640;BME280;10981;45.462;10.974;2024-02-23T04:17:30;98908.56;;;9.45;100.00
21640;BME280;10981;45.462;10.974;2024-02-23T04:20:01;98902.03;;;9.49;100.00
21640;BME280;10981;45.462;10.974;2024-02-23T04:22:33;98904.19;;;9.54;100.00
21640;BME280;10981;45.462;10.974;2024-02-23T04:25:01;98898.00;;;9.55;100.00
21640;BME280;10981;45.462;10.974;2024-02-23T04:27:30;98888.53;;;9.54;100.00
21640;BME280;10981;45.462;10.974;2024-02-23T04:29:59;98885.41;;;9.50;100.00
21640;BME280;10981;45.462;10.974;2024-02-23T04:32:30;98886.06;;;9.52;100.00
21640;BME280;10981;45.462;10.974;2024-02-23T04:34:58;98878.38;;;9.51;100.00
21640;BME280;10981;45.462;10.974;2024-02-23T04:37:27;98881.00;;;9.59;100.00
21640;BME280;10981;45.462;10.974;2024-02-23T04:39:55;98864.88;;;9.63;100.00
21640;BME280;10981;45.462;10.974;2024-02-23T04:42:23;98866.66;;;9.71;100.00
21640;BME280;10981;45.462;10.974;2024-02-23T04:44:51;98859.81;;;9.87;100.00
21640;BME280;10981;45.462;10.974;2024-02-23T04:47:22;98845.94;;;9.94;100.00
21640;BME280;10981;45.462;10.974;2024-02-23T04:49:50;98851.31;;;10.01;100.00
21640;BME280;10981;45.462;10.974;2024-02-23T04:52:19;98852.44;;;10.07;100.00
21640;BME280;10981;45.462;10.974;2024-02-23T04:54:48;98852.91;;;10.10;100.00
21640;BME280;10981;45.462;10.974;2024-02-23T04:57:16;98864.84;;;10.05;100.00
21640;BME280;10981;45.462;10.974;2024-02-23T04:59:44;98837.41;;;10.09;100.00
21640;BME280;10981;45.462;10.974;2024-02-23T05:02:12;98858.66;;;10.06;100.00
21640;BME280;10981;45.462;10.974;2024-02-23T05:04:41;98816.34;;;10.10;100.00
21640;BME280;10981;45.462;10.974;2024-02-23T05:07:09;98818.63;;;10.13;100.00
21640;BME280;10981;45.462;10.974;2024-02-23T05:09:37;98825.97;;;10.18;100.00
21640;BME280;10981;45.462;10.974;2024-02-23T05:12:07;98827.28;;;10.22;100.00
21640;BME280;10981;45.462;10.974;2024-02-23T05:14:36;98822.66;;;10.24;100.00
21640;BME280;10981;45.462;10.974;2024-02-23T05:17:04;98830.38;;;10.26;100.00
21640;BME280;10981;45.462;10.974;2024-02-23T05:19:33;98826.25;;;10.31;100.00
21640;BME280;10981;45.462;10.974;2024-02-23T05:22:01;98815.81;;;10.40;100.00
21640;BME280;10981;45.462;10.974;2024-02-23T05:24:29;98806.00;;;10.42;100.00
21640;BME280;10981;45.462;10.974;2024-02-23T05:26:57;98801.25;;;10.45;100.00
21640;BME280;10981;45.462;10.974;2024-02-23T05:29:31;98799.28;;;10.48;100.00
21640;BME280;10981;45.462;10.974;2024-02-23T05:31:59;98791.28;;;10.49;100.00
21640;BME280;10981;45.462;10.974;2024-02-23T05:34:28;98781.97;;;10.38;100.00
21640;BME280;10981;45.462;10.974;2024-02-23T05:36:56;98775.31;;;10.36;100.00
21640;BME280;10981;45.462;10.974;2024-02-23T05:39:24;98771.38;;;10.31;100.00
21640;BME280;10981;45.462;10.974;2024-02-23T05:41:53;98774.63;;;10.34;100.00
21640;BME280;10981;45.462;10.974;2024-02-23T05:44:21;98771.19;;;10.33;100.00
21640;BME280;10981;45.462;10.974;2024-02-23T05:46:50;98767.13;;;10.30;100.00
21640;BME280;10981;45.462;10.974;2024-02-23T05:49:18;98770.88;;;10.28;100.00
21640;BME280;10981;45.462;10.974;2024-02-23T05:51:47;98783.47;;;10.24;100.00
21640;BME280;10981;45.462;10.974;2024-02-23T05:54:15;98787.41;;;10.28;100.00
21640;BME280;10981;45.462;10.974;2024-02-23T05:56:44;98781.50;;;10.26;100.00
21640;BME280;10981;45.462;10.974;2024-02-23T05:59:13;98773.69;;;10.26;100.00
21640;BME280;10981;45.462;10.974;2024-02-23T06:01:42;98782.84;;;10.22;100.00
21640;BME280;10981;45.462;10.974;2024-02-23T06:04:10;98791.50;;;10.23;100.00
21640;BME280;10981;45.462;10.974;2024-02-23T06:06:41;98783.66;;;10.23;100.00
21640;BME280;10981;45.462;10.974;2024-02-23T06:09:11;98783.00;;;10.21;100.00
21640;BME280;10981;45.462;10.974;2024-02-23T06:11:39;98790.69;;;10.22;100.00
21640;BME280;10981;45.462;10.974;2024-02-23T06:14:10;98791.84;;;10.20;100.00
21640;BME280;10981;45.462;10.974;2024-02-23T06:16:39;98784.97;;;10.19;100.00
21640;BME280;10981;45.462;10.974;2024-02-23T06:19:08;98783.00;;;10.21;100.00
21640;BME280;10981;45.462;10.974;2024-02-23T06:21:37;98791.97;;;10.26;100.00
21640;BME280;10981;45.462;10.974;2024-02-23T06:24:07;98792.94;;;10.34;100.00
21640;BME280;10981;45.462;10.974;2024-02-23T06:26:36;98795.88;;;10.30;100.00
21640;BME280;10981;45.462;10.974;2024-02-23T06:29:05;98793.94;;;10.24;100.00
21640;BME280;10981;45.462;10.974;2024-02-23T06:31:34;98787.41;;;10.20;100.00
21640;BME280;10981;45.462;10.974;2024-02-23T06:34:02;98794.63;;;10.18;100.00
21640;BME280;10981;45.462;10.974;2024-02-23T06:36:31;98795.13;;;10.13;100.00
21640;BME280;10981;45.462;10.974;2024-02-23T06:38:59;98794.44;;;10.11;100.00
21640;BME280;10981;45.462;10.974;2024-02-23T06:41:27;98797.41;;;10.00;100.00
21640;BME280;10981;45.462;10.974;2024-02-23T06:43:56;98801.84;;;9.91;100.00
21640;BME280;10981;45.462;10.974;2024-02-23T06:46:26;98812.47;;;9.81;100.00
21640;BME280;10981;45.462;10.974;2024-02-23T06:48:55;98819.16;;;9.76;100.00
21640;BME280;10981;45.462;10.974;2024-02-23T06:51:23;98816.72;;;9.74;100.00
21640;BME280;10981;45.462;10.974;2024-02-23T06:53:52;98826.03;;;9.69;100.00
21640;BME280;10981;45.462;10.974;2024-02-23T06:56:21;98815.41;;;9.62;100.00
21640;BME280;10981;45.462;10.974;2024-02-23T06:58:49;98812.47;;;9.57;100.00
21640;BME280;10981;45.462;10.974;2024-02-23T07:01:19;98814.75;;;9.52;100.00
21640;BME280;10981;45.462;10.974;2024-02-23T07:03:48;98834.00;;;9.51;100.00
21640;BME280;10981;45.462;10.974;2024-02-23T07:06:22;98817.53;;;9.50;100.00
21640;BME280;10981;45.462;10.974;2024-02-23T07:08:50;98815.09;;;9.48;100.00
21640;BME280;10981;45.462;10.974;2024-02-23T07:11:18;98806.94;;;9.52;100.00
21640;BME280;10981;45.462;10.974;2024-02-23T07:13:47;98807.09;;;9.50;100.00
21640;BME280;10981;45.462;10.974;2024-02-23T07:16:15;98811.00;;;9.54;100.00
21640;BME280;10981;45.462;10.974;2024-02-23T07:18:43;98802.53;;;9.52;100.00
21640;BME280;10981;45.462;10.974;2024-02-23T07:21:11;98804.81;;;9.55;100.00
21640;BME280;10981;45.462;10.974;2024-02-23T07:23:40;98803.84;;;9.56;100.00
21640;BME280;10981;45.462;10.974;2024-02-23T07:26:08;98798.13;;;9.53;100.00
21640;BME280;10981;45.462;10.974;2024-02-23T07:28:36;98794.53;;;9.54;100.00
21640;BME280;10981;45.462;10.974;2024-02-23T07:31:05;98804.16;;;9.53;100.00
21640;BME280;10981;45.462;10.974;2024-02-23T07:33:33;98808.22;;;9.56;100.00
21640;BME280;10981;45.462;10.974;2024-02-23T07:36:05;98799.75;;;9.54;100.00
21640;BME280;10981;45.462;10.974;2024-02-23T07:38:34;98799.59;;;9.55;100.00
21640;BME280;10981;45.462;10.974;2024-02-23T07:41:02;98799.41;;;9.57;100.00
21640;BME280;10981;45.462;10.974;2024-02-23T07:43:30;98813.63;;;9.54;100.00
21640;BME280;10981;45.462;10.974;2024-02-23T07:45:59;98814.13;;;9.58;100.00
21640;BME280;10981;45.462;10.974;2024-02-23T07:48:27;98806.63;;;9.55;100.00
21640;BME280;10981;45.462;10.974;2024-02-23T07:50:55;98802.69;;;9.51;100.00
21640;BME280;10981;45.462;10.974;2024-02-23T07:53:23;98794.38;;;9.47;100.00
21640;BME280;10981;45.462;10.974;2024-02-23T07:55:52;98793.56;;;9.46;100.00
21640;BME280;10981;45.462;10.974;2024-02-23T07:58:20;98792.56;;;9.47;100.00
21640;BME280;10981;45.462;10.974;2024-02-23T08:00:49;98800.41;;;9.47;100.00
21640;BME280;10981;45.462;10.974;2024-02-23T08:03:17;98800.41;;;9.47;100.00
21640;BME280;10981;45.462;10.974;2024-02-23T08:05:46;98795.34;;;9.46;100.00
21640;BME280;10981;45.462;10.974;2024-02-23T08:08:14;98789.16;;;9.47;100.00
21640;BME280;10981;45.462;10.974;2024-02-23T08:10:43;98793.72;;;9.45;100.00
21640;BME280;10981;45.462;10.974;2024-02-23T08:13:11;98791.78;;;9.47;100.00
21640;BME280;10981;45.462;10.974;2024-02-23T08:15:39;98796.00;;;9.48;100.00
21640;BME280;10981;45.462;10.974;2024-02-23T08:18:08;98789.00;;;9.48;100.00
21640;BME280;10981;45.462;10.974;2024-02-23T08:20:36;98787.00;;;9.51;100.00
21640;BME280;10981;45.462;10.974;2024-02-23T08:23:05;98786.88;;;9.52;100.00
21640;BME280;10981;45.462;10.974;2024-02-23T08:25:33;98793.22;;;9.58;100.00
21640;BME280;10981;45.462;10.974;2024-02-23T08:28:02;98790.94;;;9.63;100.00
21640;BME280;10981;45.462;10.974;2024-02-23T08:30:30;98791.59;;;9.65;100.00
21640;BME280;10981;45.462;10.974;2024-02-23T08:32:58;98785.22;;;9.68;100.00
21640;BME280;10981;45.462;10.974;2024-02-23T08:35:27;98794.69;;;9.69;100.00
21640;BME280;10981;45.462;10.974;2024-02-23T08:37:55;98801.69;;;9.68;100.00
21640;BME280;10981;45.462;10.974;2024-02-23T08:40:23;98802.53;;;9.69;100.00
21640;BME280;10981;45.462;10.974;2024-02-23T08:42:54;98794.84;;;9.67;100.00
21640;BME280;10981;45.462;10.974;2024-02-23T08:45:23;98788.16;;;9.64;100.00
21640;BME280;10981;45.462;10.974;2024-02-23T08:47:51;98790.13;;;9.62;100.00
21640;BME280;10981;45.462;10.974;2024-02-23T08:50:19;98794.22;;;9.65;100.00
21640;BME280;10981;45.462;10.974;2024-02-23T08:52:47;98800.06;;;9.67;100.00
21640;BME280;10981;45.462;10.974;2024-02-23T08:55:34;98798.13;;;9.69;100.00
21640;BME280;10981;45.462;10.974;2024-02-23T08:58:02;98797.78;;;9.72;100.00
21640;BME280;10981;45.462;10.974;2024-02-23T09:00:30;98800.06;;;9.75;100.00
21640;BME280;10981;45.462;10.974;2024-02-23T09:03:00;98797.63;;;9.74;100.00
21640;BME280;10981;45.462;10.974;2024-02-23T09:05:28;98793.88;;;9.76;100.00
21640;BME280;10981;45.462;10.974;2024-02-23T09:07:56;98786.03;;;9.76;100.00
21640;BME280;10981;45.462;10.974;2024-02-23T09:10:25;98780.66;;;9.78;100.00
21640;BME280;10981;45.462;10.974;2024-02-23T09:12:53;98787.00;;;9.84;100.00
21640;BME280;10981;45.462;10.974;2024-02-23T09:15:22;98790.63;;;9.82;100.00
21640;BME280;10981;45.462;10.974;2024-02-23T09:17:50;98785.22;;;9.84;100.00
21640;BME280;10981;45.462;10.974;2024-02-23T09:20:18;98791.25;;;9.85;100.00
21640;BME280;10981;45.462;10.974;2024-02-23T09:22:47;98800.72;;;9.86;100.00
21640;BME280;10981;45.462;10.974;2024-02-23T09:25:15;98792.88;;;9.86;100.00
21640;BME280;10981;45.462;10.974;2024-02-23T09:27:44;98798.09;;;9.86;100.00
21640;BME280;10981;45.462;10.974;2024-02-23T09:30:13;98799.91;;;9.85;100.00
21640;BME280;10981;45.462;10.974;2024-02-23T09:32:42;98799.75;;;9.87;100.00
21640;BME280;10981;45.462;10.974;2024-02-23T09:35:13;98790.09;;;9.87;100.00
21640;BME280;10981;45.462;10.974;2024-02-23T09:37:42;98781.94;;;9.90;100.00
21640;BME280;10981;45.462;10.974;2024-02-23T09:40:11;98783.41;;;9.93;100.00
21640;BME280;10981;45.462;10.974;2024-02-23T09:42:39;98786.81;;;9.93;100.00
21640;BME280;10981;45.462;10.974;2024-02-23T09:45:08;98776.53;;;9.92;100.00
21640;BME280;10981;45.462;10.974;2024-02-23T09:47:39;98776.50;;;10.00;100.00
21640;BME280;10981;45.462;10.974;2024-02-23T09:50:09;98770.50;;;10.00;100.00
21640;BME280;10981;45.462;10.974;2024-02-23T09:52:38;98785.31;;;10.07;100.00
21640;BME280;10981;45.462;10.974;2024-02-23T09:55:07;98788.44;;;10.11;100.00
21640;BME280;10981;45.462;10.974;2024-02-23T09:57:37;98793.31;;;10.14;100.00
21640;BME280;10981;45.462;10.974;2024-02-23T10:00:06;98799.31;;;10.23;100.00
21640;BME280;10981;45.462;10.974;2024-02-23T10:02:41;98796.53;;;10.33;100.00
21640;BME280;10981;45.462;10.974;2024-02-23T10:05:11;98800.59;;;10.35;100.00
21640;BME280;10981;45.462;10.974;2024-02-23T10:07:41;98801.75;;;10.33;100.00
21640;BME280;10981;45.462;10.974;2024-02-23T10:10:09;98790.16;;;10.35;100.00
21640;BME280;10981;45.462;10.974;2024-02-23T10:12:39;98788.84;;;10.39;100.00
21640;BME280;10981;45.462;10.974;2024-02-23T10:15:07;98796.19;;;10.44;100.00
21640;BME280;10981;45.462;10.974;2024-02-23T10:17:36;98797.97;;;10.43;100.00
21640;BME280;10981;45.462;10.974;2024-02-23T10:20:05;98795.38;;;10.43;100.00
21640;BME280;10981;45.462;10.974;2024-02-23T10:22:35;98794.38;;;10.44;100.00
21640;BME280;10981;45.462;10.974;2024-02-23T10:25:03;98788.31;;;10.52;100.00
21640;BME280;10981;45.462;10.974;2024-02-23T10:27:32;98793.69;;;10.59;100.00
21640;BME280;10981;45.462;10.974;2024-02-23T10:30:01;98798.91;;;10.59;100.00
21640;BME280;10981;45.462;10.974;2024-02-23T10:32:31;98803.66;;;10.55;100.00
21640;BME280;10981;45.462;10.974;2024-02-23T10:35:01;98803.81;;;10.54;100.00
21640;BME280;10981;45.462;10.974;2024-02-23T10:37:33;98803.66;;;10.55;100.00
21640;BME280;10981;45.462;10.974;2024-02-23T10:40:02;98801.38;;;10.52;100.00
21640;BME280;10981;45.462;10.974;2024-02-23T10:42:35;98807.75;;;10.50;100.00
21640;BME280;10981;45.462;10.974;2024-02-23T10:45:06;98801.56;;;10.51;100.00
21640;BME280;10981;45.462;10.974;2024-02-23T10:47:35;98783.25;;;10.51;100.00
21640;BME280;10981;45.462;10.974;2024-02-23T10:50:07;98780.47;;;10.52;100.00
21640;BME280;10981;45.462;10.974;2024-02-23T10:52:37;98777.53;;;10.55;100.00
21640;BME280;10981;45.462;10.974;2024-02-23T10:55:09;98786.66;;;10.59;100.00
21640;BME280;10981;45.462;10.974;2024-02-23T10:57:38;98786.66;;;10.59;100.00
21640;BME280;10981;45.462;10.974;2024-02-23T11:00:11;98782.91;;;10.54;100.00
21640;BME280;10981;45.462;10.974;2024-02-23T11:02:43;98785.00;;;10.58;100.00
21640;BME280;10981;45.462;10.974;2024-02-23T11:05:16;98779.78;;;10.58;100.00
21640;BME280;10981;45.462;10.974;2024-02-23T11:07:49;98787.13;;;10.63;100.00
21640;BME280;10981;45.462;10.974;2024-02-23T11:10:19;98790.72;;;10.62;100.00
21640;BME280;10981;45.462;10.974;2024-02-23T11:13:00;98788.75;;;10.64;100.00
21640;BME280;10981;45.462;10.974;2024-02-23T11:15:30;98795.44;;;10.67;100.00
21640;BME280;10981;45.462;10.974;2024-02-23T11:18:01;98803.59;;;10.72;100.00
21640;BME280;10981;45.462;10.974;2024-02-23T11:20:37;98793.25;;;10.78;100.00
21640;BME280;10981;45.462;10.974;2024-02-23T11:23:13;98783.28;;;10.82;100.00
21640;BME280;10981;45.462;10.974;2024-02-23T11:25:43;98785.03;;;10.90;100.00
21640;BME280;10981;45.462;10.974;2024-02-23T11:28:23;98788.91;;;10.94;100.00
21640;BME280;10981;45.462;10.974;2024-02-23T11:30:53;98791.53;;;10.94;100.00
21640;BME280;10981;45.462;10.974;2024-02-23T11:33:34;98782.75;;;10.87;100.00
21640;BME280;10981;45.462;10.974;2024-02-23T11:36:07;98775.72;;;10.87;100.00
21640;BME280;10981;45.462;10.974;2024-02-23T11:38:37;98783.03;;;10.92;100.00
21640;BME280;10981;45.462;10.974;2024-02-23T11:41:08;98771.41;;;10.94;100.00
21640;BME280;10981;45.462;10.974;2024-02-23T11:43:37;98771.56;;;11.01;100.00
21640;BME280;10981;45.462;10.974;2024-02-23T11:46:07;98772.03;;;11.05;100.00
21640;BME280;10981;45.462;10.974;2024-02-23T11:48:35;98764.97;;;11.05;100.00
21640;BME280;10981;45.462;10.974;2024-02-23T11:51:04;98764.63;;;11.08;100.00
21640;BME280;10981;45.462;10.974;2024-02-23T11:53:32;98754.44;;;11.13;100.00
21640;BME280;10981;45.462;10.974;2024-02-23T11:56:01;98757.72;;;11.16;100.00
21640;BME280;10981;45.462;10.974;2024-02-23T11:58:29;98745.59;;;11.15;100.00
21640;BME280;10981;45.462;10.974;2024-02-23T12:00:58;98742.97;;;11.15;100.00
21640;BME280;10981;45.462;10.974;2024-02-23T12:03:31;98732.69;;;11.13;100.00
21640;BME280;10981;45.462;10.974;2024-02-23T12:06:00;98736.19;;;11.05;100.00
21640;BME280;10981;45.462;10.974;2024-02-23T12:08:31;98727.00;;;11.09;100.00
21640;BME280;10981;45.462;10.974;2024-02-23T12:11:06;98729.09;;;11.14;100.00
21640;BME280;10981;45.462;10.974;2024-02-23T12:13:38;98724.38;;;11.09;100.00
21640;BME280;10981;45.462;10.974;2024-02-23T12:16:08;98726.00;;;11.10;100.00
21640;BME280;10981;45.462;10.974;2024-02-23T12:18:39;98727.34;;;11.06;100.00
21640;BME280;10981;45.462;10.974;2024-02-23T12:21:09;98731.94;;;11.04;100.00
21640;BME280;10981;45.462;10.974;2024-02-23T12:23:45;98735.25;;;10.98;100.00
21640;BME280;10981;45.462;10.974;2024-02-23T12:26:15;98750.16;;;10.98;100.00
21640;BME280;10981;45.462;10.974;2024-02-23T12:28:44;98750.47;;;10.94;100.00
21640;BME280;10981;45.462;10.974;2024-02-23T12:31:12;98754.44;;;10.90;100.00
21640;BME280;10981;45.462;10.974;2024-02-23T12:33:44;98759.38;;;10.85;100.00
21640;BME280;10981;45.462;10.974;2024-02-23T12:36:17;98755.47;;;10.81;100.00
21640;BME280;10981;45.462;10.974;2024-02-23T12:38:45;98751.41;;;10.78;100.00
21640;BME280;10981;45.462;10.974;2024-02-23T12:41:16;98754.34;;;10.75;100.00
21640;BME280;10981;45.462;10.974;2024-02-23T12:43:44;98749.47;;;10.72;100.00
21640;BME280;10981;45.462;10.974;2024-02-23T12:46:18;98759.59;;;10.75;100.00
21640;BME280;10981;45.462;10.974;2024-02-23T12:48:46;98745.88;;;10.73;100.00
21640;BME280;10981;45.462;10.974;2024-02-23T12:51:18;98752.97;;;10.65;100.00
21640;BME280;10981;45.462;10.974;2024-02-23T12:53:46;98747.25;;;10.61;100.00
21640;BME280;10981;45.462;10.974;2024-02-23T12:56:15;98748.41;;;10.58;100.00